sensor_id;sensor_type;location;lat;lon;timestamp;P1;durP1;ratioP1;P2;durP2;ratioP2
74457;SDS011;62896;51.032;3.712;2023-04-01T00:02:29;9.6;;;3;;
74457;SDS011;62896;51.032;3.712;2023-04-01T00:05:49;9.6;;;3;;
74457;SDS011;62896;51.032;3.712;2023-04-01T00:09:09;9.6;;;3;;
74457;SDS011;62896;51.032;3.712;2023-04-01T00:12:29;9.6;;;3;;
74457;SDS011;62896;51.032;3.712;2023-04-01T00:15:49;9.6;;;3;;
74457;SDS011;62896;51.032;3.712;2023-04-01T00:19:09;9.6;;;3;;
74457;SDS011;62896;51.032;3.712;2023-04-01T00:22:29;14.4;;;4.3;;
74457;SDS011;62896;51.032;3.712;2023-04-01T00:25:49;14.4;;;4.3;;
74457;SDS011;62896;51.032;3.712;2023-04-01T00:29:09;14.4;;;4.3;;
74457;SDS011;62896;51.032;3.712;2023-04-01T00:32:29;14.4;;;4.3;;
74457;SDS011;62896;51.032;3.712;2023-04-01T00:35:49;14.4;;;4.3;;
74457;SDS011;62896;51.032;3.712;2023-04-01T00:39:09;14.4;;;4.3;;
74457;SDS011;62896;51.032;3.712;2023-04-01T00:42:29;14.4;;;4.3;;
74457;SDS011;62896;51.032;3.712;2023-04-01T00:45:49;9.3;;;3.9;;
74457;SDS011;62896;51.032;3.712;2023-04-01T00:49:09;9.3;;;3.9;;
74457;SDS011;62896;51.032;3.712;2023-04-01T00:52:29;9.3;;;3.9;;
74457;SDS011;62896;51.032;3.712;2023-04-01T00:55:50;9.3;;;3.9;;
74457;SDS011;62896;51.032;3.712;2023-04-01T00:59:10;9.3;;;3.9;;
74457;SDS011;62896;51.032;3.712;2023-04-01T01:02:29;9.3;;;3.9;;
74457;SDS011;62896;51.032;3.712;2023-04-01T01:05:54;9.3;;;3.9;;
74457;SDS011;62896;51.032;3.712;2023-04-01T01:09:13;9.3;;;3.9;;
74457;SDS011;62896;51.032;3.712;2023-04-01T01:12:30;15.7;;;3.8;;
74457;SDS011;62896;51.032;3.712;2023-04-01T01:15:49;15.7;;;3.8;;
74457;SDS011;62896;51.032;3.712;2023-04-01T01:19:10;15.7;;;3.8;;
74457;SDS011;62896;51.032;3.712;2023-04-01T01:22:32;15.7;;;3.8;;
74457;SDS011;62896;51.032;3.712;2023-04-01T01:25:50;15.7;;;3.8;;
74457;SDS011;62896;51.032;3.712;2023-04-01T01:29:11;15.7;;;3.8;;
74457;SDS011;62896;51.032;3.712;2023-04-01T01:32:34;15.7;;;3.8;;
74457;SDS011;62896;51.032;3.712;2023-04-01T01:35:49;17.4;;;4.1;;
74457;SDS011;62896;51.032;3.712;2023-04-01T01:39:09;17.4;;;4.1;;
74457;SDS011;62896;51.032;3.712;2023-04-01T01:42:29;17.4;;;4.1;;
74457;SDS011;62896;51.032;3.712;2023-04-01T01:45:50;17.4;;;4.1;;
74457;SDS011;62896;51.032;3.712;2023-04-01T01:49:09;17.4;;;4.1;;
74457;SDS011;62896;51.032;3.712;2023-04-01T01:52:29;17.4;;;4.1;;
74457;SDS011;62896;51.032;3.712;2023-04-01T01:55:49;17.4;;;4.1;;
74457;SDS011;62896;51.032;3.712;2023-04-01T01:59:09;17.4;;;4.1;;
74457;SDS011;62896;51.032;3.712;2023-04-01T02:02:29;13.5;;;3.3;;
74457;SDS011;62896;51.032;3.712;2023-04-01T02:05:49;13.5;;;3.3;;
74457;SDS011;62896;51.032;3.712;2023-04-01T02:09:09;13.5;;;3.3;;
74457;SDS011;62896;51.032;3.712;2023-04-01T02:12:29;13.5;;;3.3;;
74457;SDS011;62896;51.032;3.712;2023-04-01T02:15:49;13.5;;;3.3;;
74457;SDS011;62896;51.032;3.712;2023-04-01T02:19:09;13.5;;;3.3;;
74457;SDS011;62896;51.032;3.712;2023-04-01T02:22:29;13.5;;;3.3;;
74457;SDS011;62896;51.032;3.712;2023-04-01T02:25:49;19.2;;;3.2;;
74457;SDS011;62896;51.032;3.712;2023-04-01T02:29:09;19.2;;;3.2;;
74457;SDS011;62896;51.032;3.712;2023-04-01T02:32:29;19.2;;;3.2;;
74457;SDS011;62896;51.032;3.712;2023-04-01T02:35:49;19.2;;;3.2;;
74457;SDS011;62896;51.032;3.712;2023-04-01T02:39:09;19.2;;;3.2;;
74457;SDS011;62896;51.032;3.712;2023-04-01T02:42:29;19.2;;;3.2;;
74457;SDS011;62896;51.032;3.712;2023-04-01T02:45:49;19.2;;;3.2;;
74457;SDS011;62896;51.032;3.712;2023-04-01T02:49:09;19.2;;;3.2;;
74457;SDS011;62896;51.032;3.712;2023-04-01T02:52:29;15;;;4;;
74457;SDS011;62896;51.032;3.712;2023-04-01T02:55:49;15;;;4;;
74457;SDS011;62896;51.032;3.712;2023-04-01T02:59:09;15;;;4;;
74457;SDS011;62896;51.032;3.712;2023-04-01T03:02:29;15;;;4;;
74457;SDS011;62896;51.032;3.712;2023-04-01T03:05:49;15;;;4;;
74457;SDS011;62896;51.032;3.712;2023-04-01T03:09:09;15;;;4;;
74457;SDS011;62896;51.032;3.712;2023-04-01T03:12:29;15;;;4;;
74457;SDS011;62896;51.032;3.712;2023-04-01T03:15:49;14.6;;;4.2;;
74457;SDS011;62896;51.032;3.712;2023-04-01T03:19:09;14.6;;;4.2;;
74457;SDS011;62896;51.032;3.712;2023-04-01T03:22:29;14.6;;;4.2;;
74457;SDS011;62896;51.032;3.712;2023-04-01T03:25:49;14.6;;;4.2;;
74457;SDS011;62896;51.032;3.712;2023-04-01T03:29:09;14.6;;;4.2;;
74457;SDS011;62896;51.032;3.712;2023-04-01T03:32:29;14.6;;;4.2;;
74457;SDS011;62896;51.032;3.712;2023-04-01T03:35:49;14.6;;;4.2;;
74457;SDS011;62896;51.032;3.712;2023-04-01T03:39:09;14.6;;;4.2;;
74457;SDS011;62896;51.032;3.712;2023-04-01T03:42:29;9;;;3.5;;
74457;SDS011;62896;51.032;3.712;2023-04-01T03:45:50;9;;;3.5;;
74457;SDS011;62896;51.032;3.712;2023-04-01T03:49:09;9;;;3.5;;
74457;SDS011;62896;51.032;3.712;2023-04-01T03:52:29;9;;;3.5;;
74457;SDS011;62896;51.032;3.712;2023-04-01T03:55:49;9;;;3.5;;
74457;SDS011;62896;51.032;3.712;2023-04-01T03:59:09;9;;;3.5;;
74457;SDS011;62896;51.032;3.712;2023-04-01T04:02:29;9;;;3.5;;
74457;SDS011;62896;51.032;3.712;2023-04-01T04:05:49;6.4;;;3.3;;
74457;SDS011;62896;51.032;3.712;2023-04-01T04:09:09;6.4;;;3.3;;
74457;SDS011;62896;51.032;3.712;2023-04-01T04:12:29;6.4;;;3.3;;
74457;SDS011;62896;51.032;3.712;2023-04-01T04:15:49;6.4;;;3.3;;
74457;SDS011;62896;51.032;3.712;2023-04-01T04:19:09;6.4;;;3.3;;
74457;SDS011;62896;51.032;3.712;2023-04-01T04:22:29;6.4;;;3.3;;
74457;SDS011;62896;51.032;3.712;2023-04-01T04:25:53;6.4;;;3.3;;
74457;SDS011;62896;51.032;3.712;2023-04-01T04:29:09;6.4;;;3.3;;
74457;SDS011;62896;51.032;3.712;2023-04-01T04:32:29;4.2;;;2.1;;
74457;SDS011;62896;51.032;3.712;2023-04-01T04:35:49;4.2;;;2.1;;
74457;SDS011;62896;51.032;3.712;2023-04-01T04:39:09;4.2;;;2.1;;
74457;SDS011;62896;51.032;3.712;2023-04-01T04:42:29;4.2;;;2.1;;
74457;SDS011;62896;51.032;3.712;2023-04-01T04:45:50;4.2;;;2.1;;
74457;SDS011;62896;51.032;3.712;2023-04-01T04:49:09;4.2;;;2.1;;
74457;SDS011;62896;51.032;3.712;2023-04-01T04:52:29;4.2;;;2.1;;
74457;SDS011;62896;51.032;3.712;2023-04-01T04:55:49;8.3;;;4.1;;
74457;SDS011;62896;51.032;3.712;2023-04-01T04:59:09;8.3;;;4.1;;
74457;SDS011;62896;51.032;3.712;2023-04-01T05:02:29;8.3;;;4.1;;
74457;SDS011;62896;51.032;3.712;2023-04-01T05:05:49;8.3;;;4.1;;
74457;SDS011;62896;51.032;3.712;2023-04-01T05:09:09;8.3;;;4.1;;
74457;SDS011;62896;51.032;3.712;2023-04-01T05:12:29;8.3;;;4.1;;
74457;SDS011;62896;51.032;3.712;2023-04-01T05:15:49;8.3;;;4.1;;
74457;SDS011;62896;51.032;3.712;2023-04-01T05:19:09;8.3;;;4.1;;
74457;SDS011;62896;51.032;3.712;2023-04-01T05:22:29;12.1;;;4.1;;
74457;SDS011;62896;51.032;3.712;2023-04-01T05:25:49;12.1;;;4.1;;
74457;SDS011;62896;51.032;3.712;2023-04-01T05:29:09;12.1;;;4.1;;
74457;SDS011;62896;51.032;3.712;2023-04-01T05:32:30;12.1;;;4.1;;
74457;SDS011;62896;51.032;3.712;2023-04-01T05:35:49;12.1;;;4.1;;
74457;SDS011;62896;51.032;3.712;2023-04-01T05:39:09;12.1;;;4.1;;
74457;SDS011;62896;51.032;3.712;2023-04-01T05:42:29;12.1;;;4.1;;
74457;SDS011;62896;51.032;3.712;2023-04-01T05:45:49;8.4;;;3.6;;
74457;SDS011;62896;51.032;3.712;2023-04-01T05:49:09;8.4;;;3.6;;
74457;SDS011;62896;51.032;3.712;2023-04-01T05:52:29;8.4;;;3.6;;
74457;SDS011;62896;51.032;3.712;2023-04-01T05:55:49;8.4;;;3.6;;
74457;SDS011;62896;51.032;3.712;2023-04-01T05:59:10;8.4;;;3.6;;
74457;SDS011;62896;51.032;3.712;2023-04-01T06:02:29;8.4;;;3.6;;
74457;SDS011;62896;51.032;3.712;2023-04-01T06:05:49;8.4;;;3.6;;
74457;SDS011;62896;51.032;3.712;2023-04-01T06:09:12;8.4;;;3.6;;
74457;SDS011;62896;51.032;3.712;2023-04-01T06:12:33;5.9;;;3.2;;
74457;SDS011;62896;51.032;3.712;2023-04-01T06:15:51;5.9;;;3.2;;
74457;SDS011;62896;51.032;3.712;2023-04-01T06:19:12;5.9;;;3.2;;
74457;SDS011;62896;51.032;3.712;2023-04-01T06:22:39;5.9;;;3.2;;
74457;SDS011;62896;51.032;3.712;2023-04-01T06:25:51;5.9;;;3.2;;
74457;SDS011;62896;51.032;3.712;2023-04-01T06:29:16;5.9;;;3.2;;
74457;SDS011;62896;51.032;3.712;2023-04-01T06:32:35;5.9;;;3.2;;
74457;SDS011;62896;51.032;3.712;2023-04-01T06:35:52;3.9;;;1.4;;
74457;SDS011;62896;51.032;3.712;2023-04-01T06:39:16;3.9;;;1.4;;
74457;SDS011;62896;51.032;3.712;2023-04-01T06:42:33;3.9;;;1.4;;
74457;SDS011;62896;51.032;3.712;2023-04-01T06:45:50;3.9;;;1.4;;
74457;SDS011;62896;51.032;3.712;2023-04-01T06:49:21;3.9;;;1.4;;
74457;SDS011;62896;51.032;3.712;2023-04-01T06:52:31;3.9;;;1.4;;
74457;SDS011;62896;51.032;3.712;2023-04-01T06:55:49;3.9;;;1.4;;
74457;SDS011;62896;51.032;3.712;2023-04-01T06:59:10;3.9;;;1.4;;
74457;SDS011;62896;51.032;3.712;2023-04-01T07:02:31;1.8;;;0.8;;
74457;SDS011;62896;51.032;3.712;2023-04-01T07:05:49;1.8;;;0.8;;
74457;SDS011;62896;51.032;3.712;2023-04-01T07:09:10;1.8;;;0.8;;
74457;SDS011;62896;51.032;3.712;2023-04-01T07:12:32;1.8;;;0.8;;
74457;SDS011;62896;51.032;3.712;2023-04-01T07:15:54;1.8;;;0.8;;
74457;SDS011;62896;51.032;3.712;2023-04-01T07:19:11;1.8;;;0.8;;
74457;SDS011;62896;51.032;3.712;2023-04-01T07:22:30;1.8;;;0.8;;
74457;SDS011;62896;51.032;3.712;2023-04-01T07:25:51;2.6;;;0.8;;
74457;SDS011;62896;51.032;3.712;2023-04-01T07:29:09;2.6;;;0.8;;
74457;SDS011;62896;51.032;3.712;2023-04-01T07:32:32;2.6;;;0.8;;
74457;SDS011;62896;51.032;3.712;2023-04-01T07:35:50;2.6;;;0.8;;
74457;SDS011;62896;51.032;3.712;2023-04-01T07:39:12;2.6;;;0.8;;
74457;SDS011;62896;51.032;3.712;2023-04-01T07:42:31;2.6;;;0.8;;
74457;SDS011;62896;51.032;3.712;2023-04-01T07:45:51;2.6;;;0.8;;
74457;SDS011;62896;51.032;3.712;2023-04-01T07:49:11;2.6;;;0.8;;
74457;SDS011;62896;51.032;3.712;2023-04-01T07:52:31;2.7;;;1;;
74457;SDS011;62896;51.032;3.712;2023-04-01T07:55:50;2.7;;;1;;
74457;SDS011;62896;51.032;3.712;2023-04-01T07:59:11;2.7;;;1;;
74457;SDS011;62896;51.032;3.712;2023-04-01T08:02:33;2.7;;;1;;
74457;SDS011;62896;51.032;3.712;2023-04-01T08:05:52;2.7;;;1;;
74457;SDS011;62896;51.032;3.712;2023-04-01T08:09:10;2.7;;;1;;
74457;SDS011;62896;51.032;3.712;2023-04-01T08:12:32;2.7;;;1;;
74457;SDS011;62896;51.032;3.712;2023-04-01T08:15:52;3.7;;;1;;
74457;SDS011;62896;51.032;3.712;2023-04-01T08:19:13;3.7;;;1;;
74457;SDS011;62896;51.032;3.712;2023-04-01T08:22:30;3.7;;;1;;
74457;SDS011;62896;51.032;3.712;2023-04-01T08:25:50;3.7;;;1;;
74457;SDS011;62896;51.032;3.712;2023-04-01T08:29:10;3.7;;;1;;
74457;SDS011;62896;51.032;3.712;2023-04-01T08:32:30;3.7;;;1;;
74457;SDS011;62896;51.032;3.712;2023-04-01T08:35:50;3.7;;;1;;
74457;SDS011;62896;51.032;3.712;2023-04-01T08:39:10;3.7;;;1;;
74457;SDS011;62896;51.032;3.712;2023-04-01T08:42:31;4.9;;;1.2;;
74457;SDS011;62896;51.032;3.712;2023-04-01T08:45:54;4.9;;;1.2;;
74457;SDS011;62896;51.032;3.712;2023-04-01T08:49:12;4.9;;;1.2;;
74457;SDS011;62896;51.032;3.712;2023-04-01T08:52:31;4.9;;;1.2;;
74457;SDS011;62896;51.032;3.712;2023-04-01T08:55:51;4.9;;;1.2;;
74457;SDS011;62896;51.032;3.712;2023-04-01T08:59:13;4.9;;;1.2;;
74457;SDS011;62896;51.032;3.712;2023-04-01T09:02:36;4.9;;;1.2;;
74457;SDS011;62896;51.032;3.712;2023-04-01T09:06:04;6.2;;;1.9;;
74457;SDS011;62896;51.032;3.712;2023-04-01T09:12:48;6.2;;;1.9;;
74457;SDS011;62896;51.032;3.712;2023-04-01T09:16:01;6.2;;;1.9;;
74457;SDS011;62896;51.032;3.712;2023-04-01T09:19:12;6.2;;;1.9;;
74457;SDS011;62896;51.032;3.712;2023-04-01T09:22:33;6.2;;;1.9;;
74457;SDS011;62896;51.032;3.712;2023-04-01T09:25:53;6.2;;;1.9;;
74457;SDS011;62896;51.032;3.712;2023-04-01T09:29:13;6.2;;;1.9;;
74457;SDS011;62896;51.032;3.712;2023-04-01T09:32:37;5.3;;;1.1;;
74457;SDS011;62896;51.032;3.712;2023-04-01T09:35:50;5.3;;;1.1;;
74457;SDS011;62896;51.032;3.712;2023-04-01T09:39:15;5.3;;;1.1;;
74457;SDS011;62896;51.032;3.712;2023-04-01T09:42:33;5.3;;;1.1;;
74457;SDS011;62896;51.032;3.712;2023-04-01T09:45:53;5.3;;;1.1;;
74457;SDS011;62896;51.032;3.712;2023-04-01T09:49:43;5.3;;;1.1;;
74457;SDS011;62896;51.032;3.712;2023-04-01T09:52:31;5.3;;;1.1;;
74457;SDS011;62896;51.032;3.712;2023-04-01T09:55:56;2.7;;;0.8;;
74457;SDS011;62896;51.032;3.712;2023-04-01T09:59:47;2.7;;;0.8;;
74457;SDS011;62896;51.032;3.712;2023-04-01T10:02:34;2.7;;;0.8;;
74457;SDS011;62896;51.032;3.712;2023-04-01T10:05:54;2.7;;;0.8;;
74457;SDS011;62896;51.032;3.712;2023-04-01T10:12:35;2.7;;;0.8;;
74457;SDS011;62896;51.032;3.712;2023-04-01T10:15:57;2.7;;;0.8;;
74457;SDS011;62896;51.032;3.712;2023-04-01T10:19:21;2.7;;;0.8;;
74457;SDS011;62896;51.032;3.712;2023-04-01T10:23:38;2.7;;;1;;
74457;SDS011;62896;51.032;3.712;2023-04-01T10:25:55;2.7;;;1;;
74457;SDS011;62896;51.032;3.712;2023-04-01T10:29:14;2.7;;;1;;
74457;SDS011;62896;51.032;3.712;2023-04-01T10:32:34;2.7;;;1;;
74457;SDS011;62896;51.032;3.712;2023-04-01T10:36:01;2.7;;;1;;
74457;SDS011;62896;51.032;3.712;2023-04-01T10:39:17;2.7;;;1;;
74457;SDS011;62896;51.032;3.712;2023-04-01T10:42:38;2.7;;;1;;
74457;SDS011;62896;51.032;3.712;2023-04-01T10:45:55;4.9;;;1.4;;
74457;SDS011;62896;51.032;3.712;2023-04-01T10:52:38;4.9;;;1.4;;
74457;SDS011;62896;51.032;3.712;2023-04-01T10:56:55;4.9;;;1.4;;
74457;SDS011;62896;51.032;3.712;2023-04-01T10:59:14;4.9;;;1.4;;
74457;SDS011;62896;51.032;3.712;2023-04-01T11:02:37;4.9;;;1.4;;
74457;SDS011;62896;51.032;3.712;2023-04-01T11:05:58;4.9;;;1.4;;
74457;SDS011;62896;51.032;3.712;2023-04-01T11:12:41;1.6;;;0.5;;
74457;SDS011;62896;51.032;3.712;2023-04-01T11:15:55;1.6;;;0.5;;
74457;SDS011;62896;51.032;3.712;2023-04-01T11:19:14;1.6;;;0.5;;
74457;SDS011;62896;51.032;3.712;2023-04-01T11:22:33;1.6;;;0.5;;
74457;SDS011;62896;51.032;3.712;2023-04-01T11:25:54;1.6;;;0.5;;
74457;SDS011;62896;51.032;3.712;2023-04-01T11:29:15;1.6;;;0.5;;
74457;SDS011;62896;51.032;3.712;2023-04-01T11:32:34;1.6;;;0.5;;
74457;SDS011;62896;51.032;3.712;2023-04-01T11:36:07;1.5;;;0.6;;
74457;SDS011;62896;51.032;3.712;2023-04-01T11:39:19;1.5;;;0.6;;
74457;SDS011;62896;51.032;3.712;2023-04-01T11:42:31;1.5;;;0.6;;
74457;SDS011;62896;51.032;3.712;2023-04-01T11:45:50;1.5;;;0.6;;
74457;SDS011;62896;51.032;3.712;2023-04-01T11:49:14;1.5;;;0.6;;
74457;SDS011;62896;51.032;3.712;2023-04-01T11:52:51;1.5;;;0.6;;
74457;SDS011;62896;51.032;3.712;2023-04-01T11:55:54;1.5;;;0.6;;
74457;SDS011;62896;51.032;3.712;2023-04-01T11:59:23;1.5;;;0.6;;
74457;SDS011;62896;51.032;3.712;2023-04-01T12:02:32;3.2;;;1;;
74457;SDS011;62896;51.032;3.712;2023-04-01T12:05:50;3.2;;;1;;
74457;SDS011;62896;51.032;3.712;2023-04-01T12:09:11;3.2;;;1;;
74457;SDS011;62896;51.032;3.712;2023-04-01T12:12:32;3.2;;;1;;
74457;SDS011;62896;51.032;3.712;2023-04-01T12:15:54;3.2;;;1;;
74457;SDS011;62896;51.032;3.712;2023-04-01T12:19:12;3.2;;;1;;
74457;SDS011;62896;51.032;3.712;2023-04-01T12:22:33;3.2;;;1;;
74457;SDS011;62896;51.032;3.712;2023-04-01T12:25:56;6.4;;;1.7;;
74457;SDS011;62896;51.032;3.712;2023-04-01T12:29:18;6.4;;;1.7;;
74457;SDS011;62896;51.032;3.712;2023-04-01T12:32:31;6.4;;;1.7;;
74457;SDS011;62896;51.032;3.712;2023-04-01T12:35:53;6.4;;;1.7;;
74457;SDS011;62896;51.032;3.712;2023-04-01T12:39:49;6.4;;;1.7;;
74457;SDS011;62896;51.032;3.712;2023-04-01T12:42:35;6.4;;;1.7;;
74457;SDS011;62896;51.032;3.712;2023-04-01T12:45:51;6.4;;;1.7;;
74457;SDS011;62896;51.032;3.712;2023-04-01T12:50:16;6.4;;;1.7;;
74457;SDS011;62896;51.032;3.712;2023-04-01T12:52:33;4.3;;;1.3;;
74457;SDS011;62896;51.032;3.712;2023-04-01T12:55:49;4.3;;;1.3;;
74457;SDS011;62896;51.032;3.712;2023-04-01T12:59:16;4.3;;;1.3;;
74457;SDS011;62896;51.032;3.712;2023-04-01T13:02:34;4.3;;;1.3;;
74457;SDS011;62896;51.032;3.712;2023-04-01T13:05:55;4.3;;;1.3;;
74457;SDS011;62896;51.032;3.712;2023-04-01T13:09:12;4.3;;;1.3;;
74457;SDS011;62896;51.032;3.712;2023-04-01T13:12:35;4.3;;;1.3;;
74457;SDS011;62896;51.032;3.712;2023-04-01T13:15:49;2.5;;;0.7;;
74457;SDS011;62896;51.032;3.712;2023-04-01T13:19:12;2.5;;;0.7;;
74457;SDS011;62896;51.032;3.712;2023-04-01T13:22:31;2.5;;;0.7;;
74457;SDS011;62896;51.032;3.712;2023-04-01T13:25:51;2.5;;;0.7;;
74457;SDS011;62896;51.032;3.712;2023-04-01T13:29:10;2.5;;;0.7;;
74457;SDS011;62896;51.032;3.712;2023-04-01T13:32:32;2.5;;;0.7;;
74457;SDS011;62896;51.032;3.712;2023-04-01T13:35:51;2.5;;;0.7;;
74457;SDS011;62896;51.032;3.712;2023-04-01T13:39:15;2.5;;;0.7;;
74457;SDS011;62896;51.032;3.712;2023-04-01T13:42:31;2.4;;;0.8;;
74457;SDS011;62896;51.032;3.712;2023-04-01T13:45:55;2.4;;;0.8;;
74457;SDS011;62896;51.032;3.712;2023-04-01T13:49:20;2.4;;;0.8;;
74457;SDS011;62896;51.032;3.712;2023-04-01T13:52:42;2.4;;;0.8;;
74457;SDS011;62896;51.032;3.712;2023-04-01T13:56:08;2.4;;;0.8;;
74457;SDS011;62896;51.032;3.712;2023-04-01T13:59:16;2.4;;;0.8;;
74457;SDS011;62896;51.032;3.712;2023-04-01T14:02:37;2.4;;;0.8;;
74457;SDS011;62896;51.032;3.712;2023-04-01T14:05:52;2.6;;;0.7;;
74457;SDS011;62896;51.032;3.712;2023-04-01T14:09:14;2.6;;;0.7;;
74457;SDS011;62896;51.032;3.712;2023-04-01T14:12:30;2.6;;;0.7;;
74457;SDS011;62896;51.032;3.712;2023-04-01T14:15:56;2.6;;;0.7;;
74457;SDS011;62896;51.032;3.712;2023-04-01T14:19:12;2.6;;;0.7;;
74457;SDS011;62896;51.032;3.712;2023-04-01T14:22:31;2.6;;;0.7;;
74457;SDS011;62896;51.032;3.712;2023-04-01T14:25:55;2.6;;;0.7;;
74457;SDS011;62896;51.032;3.712;2023-04-01T14:29:14;2.6;;;0.7;;
74457;SDS011;62896;51.032;3.712;2023-04-01T14:32:33;2.1;;;0.6;;
74457;SDS011;62896;51.032;3.712;2023-04-01T14:35:50;2.1;;;0.6;;
74457;SDS011;62896;51.032;3.712;2023-04-01T14:39:15;2.1;;;0.6;;
74457;SDS011;62896;51.032;3.712;2023-04-01T14:42:41;2.1;;;0.6;;
74457;SDS011;62896;51.032;3.712;2023-04-01T14:45:54;2.1;;;0.6;;
74457;SDS011;62896;51.032;3.712;2023-04-01T14:49:14;2.1;;;0.6;;
74457;SDS011;62896;51.032;3.712;2023-04-01T14:52:30;2.1;;;0.6;;
74457;SDS011;62896;51.032;3.712;2023-04-01T14:55:50;2.2;;;0.7;;
74457;SDS011;62896;51.032;3.712;2023-04-01T14:59:13;2.2;;;0.7;;
74457;SDS011;62896;51.032;3.712;2023-04-01T15:02:35;2.2;;;0.7;;
74457;SDS011;62896;51.032;3.712;2023-04-01T15:05:51;2.2;;;0.7;;
74457;SDS011;62896;51.032;3.712;2023-04-01T15:09:12;2.2;;;0.7;;
74457;SDS011;62896;51.032;3.712;2023-04-01T15:12:30;2.2;;;0.7;;
74457;SDS011;62896;51.032;3.712;2023-04-01T15:15:56;2.2;;;0.7;;
74457;SDS011;62896;51.032;3.712;2023-04-01T15:19:12;2.2;;;0.7;;
74457;SDS011;62896;51.032;3.712;2023-04-01T15:22:37;1.1;;;0.5;;
74457;SDS011;62896;51.032;3.712;2023-04-01T15:25:51;1.1;;;0.5;;
74457;SDS011;62896;51.032;3.712;2023-04-01T15:29:16;1.1;;;0.5;;
74457;SDS011;62896;51.032;3.712;2023-04-01T15:32:32;1.1;;;0.5;;
74457;SDS011;62896;51.032;3.712;2023-04-01T15:35:50;1.1;;;0.5;;
74457;SDS011;62896;51.032;3.712;2023-04-01T15:39:11;1.1;;;0.5;;
74457;SDS011;62896;51.032;3.712;2023-04-01T15:42:32;1.1;;;0.5;;
74457;SDS011;62896;51.032;3.712;2023-04-01T15:45:51;2.6;;;1;;
74457;SDS011;62896;51.032;3.712;2023-04-01T15:49:12;2.6;;;1;;
74457;SDS011;62896;51.032;3.712;2023-04-01T15:52:35;2.6;;;1;;
74457;SDS011;62896;51.032;3.712;2023-04-01T15:55:50;2.6;;;1;;
74457;SDS011;62896;51.032;3.712;2023-04-01T15:59:14;2.6;;;1;;
74457;SDS011;62896;51.032;3.712;2023-04-01T16:02:31;2.6;;;1;;
74457;SDS011;62896;51.032;3.712;2023-04-01T16:05:54;2.6;;;1;;
74457;SDS011;62896;51.032;3.712;2023-04-01T16:09:13;2.6;;;1;;
74457;SDS011;62896;51.032;3.712;2023-04-01T16:12:33;3.5;;;1.1;;
74457;SDS011;62896;51.032;3.712;2023-04-01T16:15:51;3.5;;;1.1;;
74457;SDS011;62896;51.032;3.712;2023-04-01T16:19:13;3.5;;;1.1;;
74457;SDS011;62896;51.032;3.712;2023-04-01T16:22:31;3.5;;;1.1;;
74457;SDS011;62896;51.032;3.712;2023-04-01T16:25:51;3.5;;;1.1;;
74457;SDS011;62896;51.032;3.712;2023-04-01T16:29:10;3.5;;;1.1;;
74457;SDS011;62896;51.032;3.712;2023-04-01T16:32:34;3.5;;;1.1;;
74457;SDS011;62896;51.032;3.712;2023-04-01T16:35:53;6.7;;;1.6;;
74457;SDS011;62896;51.032;3.712;2023-04-01T16:39:18;6.7;;;1.6;;
74457;SDS011;62896;51.032;3.712;2023-04-01T16:42:34;6.7;;;1.6;;
74457;SDS011;62896;51.032;3.712;2023-04-01T16:45:55;6.7;;;1.6;;
74457;SDS011;62896;51.032;3.712;2023-04-01T16:49:23;6.7;;;1.6;;
74457;SDS011;62896;51.032;3.712;2023-04-01T16:52:34;6.7;;;1.6;;
74457;SDS011;62896;51.032;3.712;2023-04-01T16:55:50;6.7;;;1.6;;
74457;SDS011;62896;51.032;3.712;2023-04-01T16:59:14;6.7;;;1.6;;
74457;SDS011;62896;51.032;3.712;2023-04-01T17:02:31;4.4;;;1.8;;
74457;SDS011;62896;51.032;3.712;2023-04-01T17:05:52;4.4;;;1.8;;
74457;SDS011;62896;51.032;3.712;2023-04-01T17:09:15;4.4;;;1.8;;
74457;SDS011;62896;51.032;3.712;2023-04-01T17:12:32;4.4;;;1.8;;
74457;SDS011;62896;51.032;3.712;2023-04-01T17:15:52;4.4;;;1.8;;
74457;SDS011;62896;51.032;3.712;2023-04-01T17:19:13;4.4;;;1.8;;
74457;SDS011;62896;51.032;3.712;2023-04-01T17:22:31;4.4;;;1.8;;
74457;SDS011;62896;51.032;3.712;2023-04-01T17:25:53;4.5;;;1.6;;
74457;SDS011;62896;51.032;3.712;2023-04-01T17:29:12;4.5;;;1.6;;
74457;SDS011;62896;51.032;3.712;2023-04-01T17:32:34;4.5;;;1.6;;
74457;SDS011;62896;51.032;3.712;2023-04-01T17:35:52;4.5;;;1.6;;
74457;SDS011;62896;51.032;3.712;2023-04-01T17:39:15;4.5;;;1.6;;
74457;SDS011;62896;51.032;3.712;2023-04-01T17:42:33;4.5;;;1.6;;
74457;SDS011;62896;51.032;3.712;2023-04-01T17:45:52;4.5;;;1.6;;
74457;SDS011;62896;51.032;3.712;2023-04-01T17:49:15;4.5;;;1.6;;
74457;SDS011;62896;51.032;3.712;2023-04-01T17:52:30;4;;;1.5;;
74457;SDS011;62896;51.032;3.712;2023-04-01T17:55:53;4;;;1.5;;
74457;SDS011;62896;51.032;3.712;2023-04-01T17:59:11;4;;;1.5;;
74457;SDS011;62896;51.032;3.712;2023-04-01T18:02:31;4;;;1.5;;
74457;SDS011;62896;51.032;3.712;2023-04-01T18:05:52;4;;;1.5;;
74457;SDS011;62896;51.032;3.712;2023-04-01T18:09:15;4;;;1.5;;
74457;SDS011;62896;51.032;3.712;2023-04-01T18:12:31;4;;;1.5;;
74457;SDS011;62896;51.032;3.712;2023-04-01T18:15:50;6.9;;;3;;
74457;SDS011;62896;51.032;3.712;2023-04-01T18:19:13;6.9;;;3;;
74457;SDS011;62896;51.032;3.712;2023-04-01T18:22:33;6.9;;;3;;
74457;SDS011;62896;51.032;3.712;2023-04-01T18:25:52;6.9;;;3;;
74457;SDS011;62896;51.032;3.712;2023-04-01T18:29:12;6.9;;;3;;
74457;SDS011;62896;51.032;3.712;2023-04-01T18:32:31;6.9;;;3;;
74457;SDS011;62896;51.032;3.712;2023-04-01T18:35:50;6.9;;;3;;
74457;SDS011;62896;51.032;3.712;2023-04-01T18:39:10;6.9;;;3;;
74457;SDS011;62896;51.032;3.712;2023-04-01T18:42:33;9.7;;;4.1;;
74457;SDS011;62896;51.032;3.712;2023-04-01T18:45:50;9.7;;;4.1;;
74457;SDS011;62896;51.032;3.712;2023-04-01T18:49:13;9.7;;;4.1;;
74457;SDS011;62896;51.032;3.712;2023-04-01T18:52:31;9.7;;;4.1;;
74457;SDS011;62896;51.032;3.712;2023-04-01T18:55:50;9.7;;;4.1;;
74457;SDS011;62896;51.032;3.712;2023-04-01T18:59:10;9.7;;;4.1;;
74457;SDS011;62896;51.032;3.712;2023-04-01T19:02:31;9.7;;;4.1;;
74457;SDS011;62896;51.032;3.712;2023-04-01T19:05:50;18.1;;;5.5;;
74457;SDS011;62896;51.032;3.712;2023-04-01T19:09:26;18.1;;;5.5;;
74457;SDS011;62896;51.032;3.712;2023-04-01T19:12:33;18.1;;;5.5;;
74457;SDS011;62896;51.032;3.712;2023-04-01T19:15:52;18.1;;;5.5;;
74457;SDS011;62896;51.032;3.712;2023-04-01T19:19:13;18.1;;;5.5;;
74457;SDS011;62896;51.032;3.712;2023-04-01T19:22:34;18.1;;;5.5;;
74457;SDS011;62896;51.032;3.712;2023-04-01T19:25:50;18.1;;;5.5;;
74457;SDS011;62896;51.032;3.712;2023-04-01T19:29:13;18.1;;;5.5;;
74457;SDS011;62896;51.032;3.712;2023-04-01T19:32:33;16;;;5.1;;
74457;SDS011;62896;51.032;3.712;2023-04-01T19:35:52;16;;;5.1;;
74457;SDS011;62896;51.032;3.712;2023-04-01T19:39:14;16;;;5.1;;
74457;SDS011;62896;51.032;3.712;2023-04-01T19:42:31;16;;;5.1;;
74457;SDS011;62896;51.032;3.712;2023-04-01T19:45:51;16;;;5.1;;
74457;SDS011;62896;51.032;3.712;2023-04-01T19:49:14;16;;;5.1;;
74457;SDS011;62896;51.032;3.712;2023-04-01T19:52:31;16;;;5.1;;
74457;SDS011;62896;51.032;3.712;2023-04-01T19:55:50;17.1;;;4.7;;
74457;SDS011;62896;51.032;3.712;2023-04-01T19:59:11;17.1;;;4.7;;
74457;SDS011;62896;51.032;3.712;2023-04-01T20:02:33;17.1;;;4.7;;
74457;SDS011;62896;51.032;3.712;2023-04-01T20:05:51;17.1;;;4.7;;
74457;SDS011;62896;51.032;3.712;2023-04-01T20:09:14;17.1;;;4.7;;
74457;SDS011;62896;51.032;3.712;2023-04-01T20:12:33;17.1;;;4.7;;
74457;SDS011;62896;51.032;3.712;2023-04-01T20:15:55;17.1;;;4.7;;
74457;SDS011;62896;51.032;3.712;2023-04-01T20:19:10;17.1;;;4.7;;
74457;SDS011;62896;51.032;3.712;2023-04-01T20:22:34;18;;;5.2;;
74457;SDS011;62896;51.032;3.712;2023-04-01T20:25:51;18;;;5.2;;
74457;SDS011;62896;51.032;3.712;2023-04-01T20:29:14;18;;;5.2;;
74457;SDS011;62896;51.032;3.712;2023-04-01T20:32:39;18;;;5.2;;
74457;SDS011;62896;51.032;3.712;2023-04-01T20:35:51;18;;;5.2;;
74457;SDS011;62896;51.032;3.712;2023-04-01T20:39:15;18;;;5.2;;
74457;SDS011;62896;51.032;3.712;2023-04-01T20:42:34;18;;;5.2;;
74457;SDS011;62896;51.032;3.712;2023-04-01T20:45:52;25;;;6.8;;
74457;SDS011;62896;51.032;3.712;2023-04-01T20:49:15;25;;;6.8;;
74457;SDS011;62896;51.032;3.712;2023-04-01T20:52:32;25;;;6.8;;
74457;SDS011;62896;51.032;3.712;2023-04-01T20:55:55;25;;;6.8;;
74457;SDS011;62896;51.032;3.712;2023-04-01T20:59:16;25;;;6.8;;
74457;SDS011;62896;51.032;3.712;2023-04-01T21:02:32;25;;;6.8;;